Main page
METAR-TAF:

METAR-TAF

Airports :

Trieste / Ronchi dei Legionari, Italy

Trieste – Friuli Venezia Giulia Airport

latitude: 45-49N, longitude: 013-29E, elevation: 12 m

Current weather observation

The report was made 22 minutes ago, at 02:20 UTC
Wind 4 kt from the North/Northeast
Temperature 14°C
Humidity 82%
Pressure 1004 hPa
Visibility 10 km or more

METAR: LIPQ 260220Z AUTO 02004KT 9999 NCD 14/11 Q1004

Time: 04:42 (02:42 UTC)

Forecast

The report was made 3 hours and 42 minutes ago, at 23:00 UTC
Forecast valid from 26 at 00 UTC to 26 at 24 UTC
Wind 10 kt from the North/Northeast
Visibility 10 km or more
Scattered clouds at a height of 6000 ft
Temporary
from 26 at 03 UTC to 26 at 09 UTC
rain
Becoming
from 26 at 07 UTC to 26 at 09 UTC
Wind 6 kt from variable directions

TAF: LIPQ 252300Z 2600/2624 02010KT 9999 SCT060 TEMPO 2603/2609 RA BECMG 2607/2609 VRB06KT

Weather observations and forecasts of more than 4000 airports (METAR and TAF reports).

The available stations are represented by yellow and red dots on the map.

Hover mouse over dot to see the name of the station.

Then click to see weather observations and forecasts.

To change the map : click on the green buttons with a black cross to zoom in, on the green button with a dash to zoom out, or on the green arrows for adjacent maps.


METAR-TAF: